Time;durP1;ratioP1;P1;durP2;ratioP2;P2;SDS_P1;SDS_P2;PMS_P1;PMS_P2;Temp;Humidity;BMP_temperature;BMP_pressure;BME280_temperature;BME280_humidity;BME280_pressure;Samples;Min_cycle;Max_cycle;Signal;HPM_P1;HPM_P2
2022/09/16 04:16:29;;;;;;;;;;;23.50;99.90;;;;;;5251816;23;19930;-79
2022/09/16 04:18:56;;;;;;;;;;;23.50;99.90;;;;;;5015009;28;20016;-79
2022/09/16 04:21:23;;;;;;;;;;;23.50;99.90;;;;;;5015042;28;19975;-78
2022/09/16 04:23:50;;;;;;;;;;;23.50;99.90;;;;;;5014098;28;19932;-76
2022/09/16 04:26:17;;;;;;;;;;;23.50;99.90;;;;;;5013894;28;20388;-75
2022/09/16 04:28:44;;;;;;;;;;;23.50;99.90;;;;;;5014244;28;19925;-76
2022/09/16 04:31:11;;;;;;;;;;;23.50;99.90;;;;;;5014445;28;19925;-78
2022/09/16 04:33:39;;;;;;;;;;;23.50;99.90;;;;;;5014670;28;19965;-78
2022/09/16 04:36:07;;;;;;;;;;;23.50;99.90;;;;;;5014310;28;20020;-78
2022/09/16 04:38:34;;;;;;;;;;;23.50;99.90;;;;;;5014370;28;19932;-78
2022/09/16 04:41:01;;;;;;;;;;;23.50;99.90;;;;;;5014370;28;19936;-78
2022/09/16 04:43:28;;;;;;;;;;;23.50;99.90;;;;;;5014393;28;19926;-79
2022/09/16 04:45:54;;;;;;;;;;;23.40;99.90;;;;;;5013914;28;19926;-79
2022/09/16 04:48:21;;;;;;;;;;;23.40;99.90;;;;;;5018470;28;19925;-79
2022/09/16 04:50:49;;;;;;;;;;;23.40;99.90;;;;;;5018521;28;19925;-79
2022/09/16 04:53:16;;;;;;;;;;;23.40;99.90;;;;;;5018533;28;19935;-79
2022/09/16 04:55:42;;;;;;;;;;;23.40;99.90;;;;;;5042646;22;19971;-82
2022/09/16 04:58:09;;;;;;;;;;;23.40;99.90;;;;;;5021042;28;19929;-82
2022/09/16 05:00:36;;;;;;;;;;;23.40;99.90;;;;;;5019761;28;19971;-84
2022/09/16 05:03:03;;;;;;;;;;;23.30;99.90;;;;;;5018226;28;19926;-84
2022/09/16 05:05:29;;;;;;;;;;;23.30;99.90;;;;;;5018655;28;19975;-83
2022/09/16 05:07:57;;;;;;;;;;;23.30;99.90;;;;;;5019179;28;19951;-81
2022/09/16 05:10:24;;;;;;;;;;;23.30;99.90;;;;;;5019457;28;20017;-81
2022/09/16 05:12:51;;;;;;;;;;;23.30;99.90;;;;;;5020406;28;19967;-80
2022/09/16 05:15:18;;;;;;;;;;;23.30;99.90;;;;;;5020007;28;19926;-80
2022/09/16 05:17:45;;;;;;;;;;;23.20;99.90;;;;;;5020917;28;19961;-80
2022/09/16 05:20:13;;;;;;;;;;;23.20;99.90;;;;;;5022586;28;19933;-80
2022/09/16 05:22:39;;;;;;;;;;;23.20;99.90;;;;;;5022236;28;20289;-80
2022/09/16 05:25:08;;;;;;;;;;;23.20;99.90;;;;;;5022276;28;19929;-79
2022/09/16 05:27:34;;;;;;;;;;;23.20;99.90;;;;;;5022424;28;19926;-79
2022/09/16 05:30:01;;;;;;;;;;;23.20;99.90;;;;;;5022264;28;19925;-79
2022/09/16 05:32:28;;;;;;;;;;;23.20;99.90;;;;;;5030883;28;19925;-79
2022/09/16 05:34:55;;;;;;;;;;;23.20;99.90;;;;;;5032160;28;19972;-79
2022/09/16 05:37:21;;;;;;;;;;;23.20;99.90;;;;;;5030707;28;19926;-79
2022/09/16 05:39:48;;;;;;;;;;;23.20;99.90;;;;;;5030521;28;19926;-79
2022/09/16 05:42:16;;;;;;;;;;;23.20;99.90;;;;;;5027761;28;19926;-79
2022/09/16 05:44:43;;;;;;;;;;;23.20;99.90;;;;;;5023669;28;19993;-80
2022/09/16 05:47:09;;;;;;;;;;;23.20;99.90;;;;;;5022897;28;20020;-79
2022/09/16 05:49:36;;;;;;;;;;;23.10;99.90;;;;;;5022855;28;19965;-79
2022/09/16 05:52:02;;;;;;;;;;;23.20;99.90;;;;;;5021641;28;19964;-79
2022/09/16 05:54:30;;;;;;;;;;;23.10;99.90;;;;;;5017419;28;19936;-80
2022/09/16 05:56:56;;;;;;;;;;;23.20;99.90;;;;;;5016880;28;19925;-82
2022/09/16 05:59:24;;;;;;;;;;;23.20;99.90;;;;;;5018273;28;19964;-82
2022/09/16 06:01:52;;;;;;;;;;;23.20;99.90;;;;;;5020536;28;19932;-81
2022/09/16 06:04:18;;;;;;;;;;;23.20;99.90;;;;;;5020009;28;20417;-82
2022/09/16 06:06:46;;;;;;;;;;;23.20;99.90;;;;;;5020822;28;20436;-84
2022/09/16 06:09:14;;;;;;;;;;;23.20;99.90;;;;;;5022606;28;19932;-80
2022/09/16 06:11:42;;;;;;;;;;;23.20;99.90;;;;;;5021068;28;19976;-80
2022/09/16 06:14:09;;;;;;;;;;;23.20;99.90;;;;;;5021254;28;19988;-80
2022/09/16 06:16:38;;;;;;;;;;;23.20;99.90;;;;;;5020481;28;19964;-80
2022/09/16 06:19:05;;;;;;;;;;;23.20;99.90;;;;;;5020873;28;20013;-81
2022/09/16 06:21:32;;;;;;;;;;;23.20;99.90;;;;;;5019608;28;20444;-81
2022/09/16 06:23:59;;;;;;;;;;;23.20;99.90;;;;;;5020660;28;19981;-83
2022/09/16 06:26:26;;;;;;;;;;;23.30;99.90;;;;;;5020116;28;19925;-82
2022/09/16 06:28:53;;;;;;;;;;;23.30;99.90;;;;;;5020641;28;19925;-81
2022/09/16 06:31:20;;;;;;;;;;;23.20;99.90;;;;;;5020661;28;19926;-80
2022/09/16 06:33:49;;;;;;;;;;;23.20;99.90;;;;;;5020157;28;20325;-80
2022/09/16 06:36:16;;;;;;;;;;;23.30;99.90;;;;;;5020381;28;19933;-82
2022/09/16 06:38:43;;;;;;;;;;;23.20;99.90;;;;;;5020888;28;20012;-82
2022/09/16 06:41:11;;;;;;;;;;;23.20;99.90;;;;;;5019504;28;19988;-83
2022/09/16 06:43:38;;;;;;;;;;;23.20;99.90;;;;;;5020090;28;20008;-82
2022/09/16 06:46:05;;;;;;;;;;;23.20;99.90;;;;;;5019945;28;20028;-82
2022/09/16 06:48:32;;;;;;;;;;;23.20;99.90;;;;;;5020053;28;20024;-82
2022/09/16 06:51:01;;;;;;;;;;;23.20;99.90;;;;;;5020120;28;20450;-82
2022/09/16 06:53:28;;;;;;;;;;;23.20;99.90;;;;;;5019677;28;20013;-81
2022/09/16 06:55:55;;;;;;;;;;;23.20;99.90;;;;;;5019620;28;19926;-81
2022/09/16 06:58:22;;;;;;;;;;;23.20;99.90;;;;;;5019470;28;20447;-82
2022/09/16 07:00:49;;;;;;;;;;;23.20;99.90;;;;;;5018903;28;20398;-82
2022/09/16 07:03:16;;;;;;;;;;;23.20;99.90;;;;;;5019750;28;19926;-82
2022/09/16 07:05:43;;;;;;;;;;;23.20;99.90;;;;;;5018736;28;19926;-82
2022/09/16 07:08:11;;;;;;;;;;;23.20;99.90;;;;;;5019514;28;19971;-82
2022/09/16 07:10:37;;;;;;;;;;;23.20;99.90;;;;;;5019128;28;19932;-82
2022/09/16 07:13:04;;;;;;;;;;;23.20;99.90;;;;;;5019065;28;19972;-82
2022/09/16 07:15:31;;;;;;;;;;;23.20;99.90;;;;;;5018913;28;20289;-82
2022/09/16 07:17:58;;;;;;;;;;;23.20;99.90;;;;;;5018218;28;20419;-82
2022/09/16 07:20:24;;;;;;;;;;;23.20;99.90;;;;;;5018636;28;20424;-82
2022/09/16 07:22:52;;;;;;;;;;;23.20;99.90;;;;;;5018495;28;19935;-82
2022/09/16 07:25:21;;;;;;;;;;;23.20;99.90;;;;;;5018420;28;19926;-82
2022/09/16 07:27:47;;;;;;;;;;;23.20;99.90;;;;;;5018182;28;19926;-82
2022/09/16 07:30:14;;;;;;;;;;;23.20;99.90;;;;;;5018596;28;19932;-82
2022/09/16 07:32:41;;;;;;;;;;;23.20;99.90;;;;;;5017930;28;19925;-82
2022/09/16 07:35:08;;;;;;;;;;;23.20;99.90;;;;;;5018321;28;19979;-82
2022/09/16 07:37:34;;;;;;;;;;;23.20;99.90;;;;;;5018549;28;19981;-82
2022/09/16 07:40:01;;;;;;;;;;;23.10;99.90;;;;;;5018187;28;19976;-82
2022/09/16 07:42:30;;;;;;;;;;;23.20;99.90;;;;;;5018564;28;19925;-82
2022/09/16 07:44:56;;;;;;;;;;;23.20;99.90;;;;;;5018074;28;19933;-81
2022/09/16 07:47:23;;;;;;;;;;;23.20;99.90;;;;;;5017514;28;20020;-82
2022/09/16 07:49:54;;;;;;;;;;;23.10;99.90;;;;;;5017983;28;19972;-82
2022/09/16 07:52:21;;;;;;;;;;;23.20;99.90;;;;;;5017369;28;19972;-82
2022/09/16 07:54:48;;;;;;;;;;;23.20;99.90;;;;;;5016464;28;19932;-81
2022/09/16 07:57:16;;;;;;;;;;;23.20;99.90;;;;;;5016635;28;19926;-82
2022/09/16 07:59:44;;;;;;;;;;;23.20;99.90;;;;;;5017478;28;19926;-82
2022/09/16 08:02:10;;;;;;;;;;;23.10;99.90;;;;;;5016783;28;19925;-83
2022/09/16 08:04:37;;;;;;;;;;;23.10;99.90;;;;;;5016689;28;20389;-82
2022/09/16 08:07:04;;;;;;;;;;;23.10;99.90;;;;;;5016918;28;19948;-82
2022/09/16 08:09:31;;;;;;;;;;;23.10;99.90;;;;;;5016935;28;20016;-82
2022/09/16 08:11:58;;;;;;;;;;;23.10;99.90;;;;;;5016952;28;19967;-82
2022/09/16 08:14:25;;;;;;;;;;;23.10;99.90;;;;;;5017115;28;19976;-82
2022/09/16 08:16:53;;;;;;;;;;;23.10;99.90;;;;;;5016724;28;19925;-82
2022/09/16 08:19:21;;;;;;;;;;;23.10;99.90;;;;;;5016584;28;20373;-82
2022/09/16 08:21:48;;;;;;;;;;;23.10;99.90;;;;;;5015860;28;19925;-82
2022/09/16 08:24:15;;;;;;;;;;;23.10;99.90;;;;;;5018988;28;20013;-82
2022/09/16 08:26:41;;;;;;;;;;;23.10;99.90;;;;;;5016525;28;19977;-82
2022/09/16 08:29:08;;;;;;;;;;;23.10;99.90;;;;;;5016676;28;19925;-82
2022/09/16 08:31:35;;;;;;;;;;;23.10;99.90;;;;;;5016609;28;19975;-82
2022/09/16 08:34:03;;;;;;;;;;;23.10;99.90;;;;;;5016565;28;19969;-82
2022/09/16 08:36:32;;;;;;;;;;;23.10;99.90;;;;;;5015838;28;20432;-82
2022/09/16 08:38:58;;;;;;;;;;;23.10;99.90;;;;;;5016699;28;19965;-82
2022/09/16 08:41:40;;;;;;;;;;;23.10;99.90;;;;;;5016151;28;19925;-82
2022/09/16 08:44:12;;;;;;;;;;;23.10;99.90;;;;;;5016502;28;19984;-82
2022/09/16 08:46:42;;;;;;;;;;;23.10;99.90;;;;;;5016413;28;19968;-82
2022/09/16 08:49:16;;;;;;;;;;;23.10;99.90;;;;;;5017240;28;19932;-82
2022/09/16 08:51:43;;;;;;;;;;;23.10;99.90;;;;;;5016252;28;19930;-82
2022/09/16 08:54:11;;;;;;;;;;;23.10;99.90;;;;;;5016480;28;19926;-81
2022/09/16 08:56:38;;;;;;;;;;;23.10;99.90;;;;;;5015733;28;19925;-82
2022/09/16 08:59:09;;;;;;;;;;;23.10;99.90;;;;;;5016028;28;20380;-82
2022/09/16 09:01:38;;;;;;;;;;;23.10;99.90;;;;;;5016511;28;19992;-82
2022/09/16 09:04:05;;;;;;;;;;;23.10;99.90;;;;;;5016391;28;20020;-82
2022/09/16 09:06:46;;;;;;;;;;;23.00;99.90;;;;;;5016281;28;19932;-82
2022/09/16 09:09:25;;;;;;;;;;;23.10;99.90;;;;;;5014183;28;19984;-81
2022/09/16 09:11:56;;;;;;;;;;;23.00;99.90;;;;;;5017977;28;19926;-82
2022/09/16 09:14:28;;;;;;;;;;;23.00;99.90;;;;;;5016265;28;20460;-82
2022/09/16 09:16:59;;;;;;;;;;;23.00;99.90;;;;;;5015170;28;19930;-82
2022/09/16 09:19:35;;;;;;;;;;;23.00;99.90;;;;;;5014397;28;19957;-82
2022/09/16 09:22:08;;;;;;;;;;;23.00;99.90;;;;;;5015693;28;19926;-82
2022/09/16 09:24:48;;;;;;;;;;;23.00;99.90;;;;;;5014707;28;20358;-82
2022/09/16 09:27:17;;;;;;;;;;;23.00;99.90;;;;;;5014953;28;20328;-82
2022/09/16 09:29:55;;;;;;;;;;;23.00;99.90;;;;;;5014804;28;20447;-82
2022/09/16 09:32:28;;;;;;;;;;;23.00;99.90;;;;;;5017441;28;19929;-82
2022/09/16 09:35:12;;;;;;;;;;;23.00;99.90;;;;;;5020160;28;19925;-82
2022/09/16 09:37:46;;;;;;;;;;;23.00;99.80;;;;;;5021722;28;19926;-82
2022/09/16 09:40:16;;;;;;;;;;;23.00;99.50;;;;;;5021499;28;19957;-82
2022/09/16 09:42:46;;;;;;;;;;;23.00;99.30;;;;;;5022686;28;19926;-82
2022/09/16 09:45:17;;;;;;;;;;;22.90;99.10;;;;;;5021991;28;19925;-82
2022/09/16 09:47:46;;;;;;;;;;;22.90;99.10;;;;;;5020025;28;19936;-82
2022/09/16 09:50:16;;;;;;;;;;;22.90;98.80;;;;;;5020272;28;19949;-82
2022/09/16 09:52:46;;;;;;;;;;;22.90;98.70;;;;;;5019823;28;19925;-82
2022/09/16 09:55:16;;;;;;;;;;;22.90;98.50;;;;;;5019724;28;19926;-82
2022/09/16 09:57:48;;;;;;;;;;;22.90;98.30;;;;;;5020290;28;19965;-82
2022/09/16 10:00:16;;;;;;;;;;;22.90;98.20;;;;;;5019742;28;20301;-82
2022/09/16 10:02:44;;;;;;;;;;;22.90;98.00;;;;;;5022743;28;19972;-82
2022/09/16 10:05:15;;;;;;;;;;;22.90;97.90;;;;;;5022552;28;20333;-82
2022/09/16 10:07:42;;;;;;;;;;;22.90;97.70;;;;;;5022470;28;20096;-82
2022/09/16 10:10:13;;;;;;;;;;;22.90;97.50;;;;;;5022488;28;19985;-82
2022/09/16 10:12:41;;;;;;;;;;;22.90;97.20;;;;;;5022555;28;19981;-82
2022/09/16 10:15:18;;;;;;;;;;;22.90;97.10;;;;;;5022891;28;19926;-81
2022/09/16 10:17:48;;;;;;;;;;;22.90;97.00;;;;;;5021919;28;19988;-82
2022/09/16 10:20:22;;;;;;;;;;;22.90;96.70;;;;;;5022900;28;20016;-82
2022/09/16 10:22:54;;;;;;;;;;;22.90;96.70;;;;;;5022673;28;19926;-82
2022/09/16 10:25:23;;;;;;;;;;;22.90;96.50;;;;;;5022961;28;20016;-82
2022/09/16 10:27:57;;;;;;;;;;;22.90;96.30;;;;;;5023444;28;19925;-83
2022/09/16 10:30:23;;;;;;;;;;;22.90;96.10;;;;;;5023214;28;20316;-82
2022/09/16 10:32:52;;;;;;;;;;;22.90;95.90;;;;;;5023233;28;19981;-82
2022/09/16 10:35:20;;;;;;;;;;;22.90;95.60;;;;;;5023099;28;19972;-81
2022/09/16 10:37:49;;;;;;;;;;;22.90;95.40;;;;;;5023015;28;19965;-82
2022/09/16 10:40:17;;;;;;;;;;;22.90;95.20;;;;;;5022391;28;20008;-83
2022/09/16 10:42:46;;;;;;;;;;;22.80;95.10;;;;;;5024858;28;20012;-84
2022/09/16 10:45:16;;;;;;;;;;;22.90;95.00;;;;;;5024318;28;20020;-84
2022/09/16 10:47:48;;;;;;;;;;;22.90;94.90;;;;;;5023400;28;19969;-84
2022/09/16 10:50:16;;;;;;;;;;;22.90;94.70;;;;;;5022011;28;20024;-82
2022/09/16 10:52:44;;;;;;;;;;;22.90;94.60;;;;;;5024199;28;20012;-83
2022/09/16 10:55:20;;;;;;;;;;;22.90;94.30;;;;;;5021276;28;20433;-84
2022/09/16 10:57:47;;;;;;;;;;;22.90;94.30;;;;;;5041231;23;19984;-78
2022/09/16 11:00:16;;;;;;;;;;;22.90;94.30;;;;;;5015898;28;19932;-77
2022/09/16 11:03:01;;;;;;;;;;;22.90;94.20;;;;;;5016359;28;19932;-76
2022/09/16 11:05:31;;;;;;;;;;;22.90;94.00;;;;;;5015756;28;19931;-76
2022/09/16 11:08:02;;;;;;;;;;;22.90;93.80;;;;;;5016997;28;19925;-76
2022/09/16 11:10:34;;;;;;;;;;;22.90;93.80;;;;;;5016863;28;19932;-76
2022/09/16 11:13:17;;;;;;;;;;;22.90;93.70;;;;;;5016646;28;19932;-75
2022/09/16 11:15:52;;;;;;;;;;;22.90;93.60;;;;;;5015751;28;19925;-76
2022/09/16 11:18:27;;;;;;;;;;;22.90;93.50;;;;;;5016115;28;19925;-75
2022/09/16 11:21:00;;;;;;;;;;;23.00;93.50;;;;;;5015978;28;19979;-76
2022/09/16 11:23:33;;;;;;;;;;;23.00;93.30;;;;;;5015707;28;19932;-76
2022/09/16 11:26:06;;;;;;;;;;;23.00;93.20;;;;;;5016536;28;20008;-76
2022/09/16 11:28:45;;;;;;;;;;;23.00;93.20;;;;;;5014832;28;19984;-76
2022/09/16 11:31:16;;;;;;;;;;;23.00;93.10;;;;;;5015070;28;20011;-76
2022/09/16 11:33:48;;;;;;;;;;;23.00;93.00;;;;;;5015010;28;19929;-76
2022/09/16 11:36:31;;;;;;;;;;;22.90;92.80;;;;;;5014567;28;19932;-76
2022/09/16 11:39:04;;;;;;;;;;;22.90;92.60;;;;;;5014912;28;19932;-76
2022/09/16 11:41:33;;;;;;;;;;;22.90;92.50;;;;;;5014790;28;19932;-76
2022/09/16 11:44:06;;;;;;;;;;;22.90;92.40;;;;;;5014803;28;19925;-76
2022/09/16 11:46:38;;;;;;;;;;;22.90;92.20;;;;;;5014712;28;19925;-76
2022/09/16 11:49:25;;;;;;;;;;;22.90;92.00;;;;;;5014462;28;20012;-76
2022/09/16 11:51:57;;;;;;;;;;;22.90;91.70;;;;;;5012870;28;19981;-80
2022/09/16 11:54:41;;;;;;;;;;;22.80;91.70;;;;;;5021100;28;19929;-80
2022/09/16 11:57:10;;;;;;;;;;;22.80;91.70;;;;;;5020280;28;20016;-80
2022/09/16 11:59:40;;;;;;;;;;;22.80;91.70;;;;;;5019921;28;20007;-79
2022/09/16 12:02:14;;;;;;;;;;;22.90;91.60;;;;;;5019376;28;20013;-81
2022/09/16 12:04:44;;;;;;;;;;;22.90;91.60;;;;;;5018778;28;19972;-79
2022/09/16 12:07:13;;;;;;;;;;;22.90;91.50;;;;;;5018738;28;19925;-79
2022/09/16 12:09:44;;;;;;;;;;;22.90;91.40;;;;;;5019934;28;19972;-79
2022/09/16 12:12:13;;;;;;;;;;;22.90;91.40;;;;;;5020765;28;19925;-79
2022/09/16 12:14:42;;;;;;;;;;;23.00;91.40;;;;;;5018203;28;19925;-79
2022/09/16 12:17:12;;;;;;;;;;;23.00;91.30;;;;;;5018732;28;19925;-80
2022/09/16 12:19:42;;;;;;;;;;;23.00;91.30;;;;;;5018161;28;20020;-79
2022/09/16 12:22:11;;;;;;;;;;;23.00;91.30;;;;;;5019328;28;19932;-78
2022/09/16 12:24:41;;;;;;;;;;;23.00;91.20;;;;;;5016008;28;19987;-79
2022/09/16 12:27:10;;;;;;;;;;;23.00;91.20;;;;;;5014482;28;19932;-77
2022/09/16 12:29:40;;;;;;;;;;;23.00;91.20;;;;;;5019242;28;19996;-80
2022/09/16 12:32:09;;;;;;;;;;;23.00;91.10;;;;;;5014022;28;20304;-77
2022/09/16 12:34:39;;;;;;;;;;;23.00;91.10;;;;;;5014750;28;19925;-78
2022/09/16 12:37:07;;;;;;;;;;;23.00;91.00;;;;;;5018281;28;19933;-79
2022/09/16 12:39:34;;;;;;;;;;;23.00;91.00;;;;;;5015155;28;19925;-78
2022/09/16 12:42:11;;;;;;;;;;;23.00;91.00;;;;;;5014494;28;20381;-79
2022/09/16 12:45:01;;;;;;;;;;;23.00;90.90;;;;;;5014890;28;19932;-79
2022/09/16 12:47:47;;;;;;;;;;;23.00;90.80;;;;;;4999649;28;19957;-78
2022/09/16 12:50:24;;;;;;;;;;;23.00;90.70;;;;;;5014461;28;19975;-78
2022/09/16 12:53:06;;;;;;;;;;;23.00;90.60;;;;;;5018561;28;19933;-78
2022/09/16 12:55:39;;;;;;;;;;;23.00;90.50;;;;;;5019015;28;20012;-78
2022/09/16 12:58:13;;;;;;;;;;;23.00;90.40;;;;;;5018773;28;19993;-75
2022/09/16 13:00:43;;;;;;;;;;;23.00;90.30;;;;;;5019729;28;19991;-75
2022/09/16 13:03:13;;;;;;;;;;;23.00;90.20;;;;;;5019180;28;19968;-75
2022/09/16 13:05:45;;;;;;;;;;;23.00;90.10;;;;;;5019189;28;19968;-76
2022/09/16 13:08:19;;;;;;;;;;;23.00;90.00;;;;;;5021553;28;19933;-75
2022/09/16 13:10:54;;;;;;;;;;;23.00;90.00;;;;;;5018754;28;19968;-75
2022/09/16 13:13:24;;;;;;;;;;;23.00;89.80;;;;;;5017272;28;19926;-74
2022/09/16 13:15:55;;;;;;;;;;;23.00;89.60;;;;;;5017657;28;19925;-75
2022/09/16 13:18:25;;;;;;;;;;;23.00;89.40;;;;;;5017468;28;19932;-74
2022/09/16 13:20:57;;;;;;;;;;;23.00;89.10;;;;;;5017429;28;19995;-74
2022/09/16 13:23:26;;;;;;;;;;;23.00;88.90;;;;;;5017425;28;19929;-74
2022/09/16 13:25:57;;;;;;;;;;;23.00;88.70;;;;;;5017072;28;20020;-75
2022/09/16 13:28:27;;;;;;;;;;;23.00;88.40;;;;;;5017193;28;19935;-75
2022/09/16 13:30:53;;;;;;;;;;;23.00;88.40;;;;;;5016926;28;20358;-74
2022/09/16 13:33:28;;;;;;;;;;;23.00;88.40;;;;;;5017195;28;19932;-76
2022/09/16 13:36:13;;;;;;;;;;;23.00;88.40;;;;;;5017136;28;19925;-74
2022/09/16 13:38:42;;;;;;;;;;;23.00;88.10;;;;;;5017032;28;19925;-75
2022/09/16 13:41:11;;;;;;;;;;;23.00;87.80;;;;;;5017076;28;19979;-74
2022/09/16 13:43:48;;;;;;;;;;;22.90;87.50;;;;;;5016654;28;20373;-74
2022/09/16 13:46:27;;;;;;;;;;;23.00;87.30;;;;;;5016906;28;19932;-75
2022/09/16 13:48:56;;;;;;;;;;;23.00;87.10;;;;;;5016933;28;19930;-75
2022/09/16 13:51:23;;;;;;;;;;;23.00;86.90;;;;;;5016858;28;19930;-75
2022/09/16 13:53:52;;;;;;;;;;;22.90;86.60;;;;;;5016806;28;20016;-75
2022/09/16 13:56:24;;;;;;;;;;;23.00;86.60;;;;;;5016398;28;20373;-75
2022/09/16 13:58:56;;;;;;;;;;;23.00;86.40;;;;;;5016755;28;20016;-75
2022/09/16 14:01:28;;;;;;;;;;;22.90;86.10;;;;;;5016692;28;19929;-75
2022/09/16 14:03:56;;;;;;;;;;;23.00;86.00;;;;;;5016647;28;19932;-75
2022/09/16 14:06:37;;;;;;;;;;;22.90;85.70;;;;;;5016540;28;20016;-75
2022/09/16 14:09:09;;;;;;;;;;;22.90;85.50;;;;;;5016330;28;20031;-75
2022/09/16 14:11:39;;;;;;;;;;;22.90;85.40;;;;;;5016547;28;19926;-75
2022/09/16 14:14:09;;;;;;;;;;;22.90;85.20;;;;;;5016718;28;19926;-75
2022/09/16 14:16:39;;;;;;;;;;;22.90;85.00;;;;;;5016333;28;19926;-75
2022/09/16 14:19:07;;;;;;;;;;;22.90;84.90;;;;;;5015371;28;20403;-75
2022/09/16 14:21:34;;;;;;;;;;;22.90;84.70;;;;;;5016286;28;19936;-75
2022/09/16 14:24:14;;;;;;;;;;;22.90;84.50;;;;;;5016193;28;19929;-75
2022/09/16 14:26:49;;;;;;;;;;;22.90;84.30;;;;;;5016167;28;19926;-75
2022/09/16 14:29:16;;;;;;;;;;;22.90;84.20;;;;;;5016159;28;19932;-75
2022/09/16 14:31:44;;;;;;;;;;;22.90;84.00;;;;;;5016103;28;20013;-76
2022/09/16 14:34:12;;;;;;;;;;;22.90;83.80;;;;;;5016040;28;19932;-76
2022/09/16 14:36:39;;;;;;;;;;;22.90;83.70;;;;;;5015618;28;19980;-76
2022/09/16 14:39:11;;;;;;;;;;;22.90;83.50;;;;;;5015945;28;19948;-76
2022/09/16 14:41:40;;;;;;;;;;;22.90;83.50;;;;;;5015920;28;20012;-75
2022/09/16 14:44:08;;;;;;;;;;;22.90;83.30;;;;;;5015818;28;19926;-75
2022/09/16 14:46:39;;;;;;;;;;;22.90;83.40;;;;;;5015750;28;19925;-76
2022/09/16 14:49:08;;;;;;;;;;;22.90;83.30;;;;;;5015552;28;19932;-76
2022/09/16 14:51:36;;;;;;;;;;;22.90;82.90;;;;;;5015751;28;19926;-77
2022/09/16 14:54:02;;;;;;;;;;;22.90;82.70;;;;;;5015673;28;19971;-77
2022/09/16 14:56:30;;;;;;;;;;;22.90;82.70;;;;;;5015240;28;19926;-76
2022/09/16 14:58:57;;;;;;;;;;;22.90;82.60;;;;;;5015345;28;19926;-76
2022/09/16 15:01:26;;;;;;;;;;;22.90;82.60;;;;;;5015307;28;19936;-76
2022/09/16 15:03:55;;;;;;;;;;;23.00;82.70;;;;;;5015112;28;19988;-75
2022/09/16 15:06:22;;;;;;;;;;;22.90;82.60;;;;;;5015105;28;20381;-76
2022/09/16 15:08:51;;;;;;;;;;;22.90;82.60;;;;;;5015403;28;19934;-76
2022/09/16 15:11:18;;;;;;;;;;;23.00;82.80;;;;;;5015384;28;19925;-76
2022/09/16 15:13:47;;;;;;;;;;;23.00;82.70;;;;;;5017500;28;20000;-79
2022/09/16 15:16:16;;;;;;;;;;;23.00;82.70;;;;;;5018675;28;19929;-79
2022/09/16 15:18:44;;;;;;;;;;;23.00;82.80;;;;;;5019309;28;20286;-79
2022/09/16 15:21:12;;;;;;;;;;;23.00;82.70;;;;;;5018559;28;19925;-79
2022/09/16 15:23:41;;;;;;;;;;;23.00;82.80;;;;;;5016724;28;19976;-75
2022/09/16 15:26:13;;;;;;;;;;;23.00;82.80;;;;;;5015045;28;19949;-75
2022/09/16 15:28:51;;;;;;;;;;;23.00;82.80;;;;;;5015102;28;19925;-75
2022/09/16 15:31:26;;;;;;;;;;;23.00;82.80;;;;;;5013829;28;19925;-75
2022/09/16 15:33:52;;;;;;;;;;;23.00;82.70;;;;;;5015060;28;20028;-75
2022/09/16 15:36:31;;;;;;;;;;;23.00;82.80;;;;;;5014945;28;20012;-75
2022/09/16 15:38:58;;;;;;;;;;;23.00;82.70;;;;;;5014965;28;19973;-74
2022/09/16 15:41:25;;;;;;;;;;;23.00;82.70;;;;;;5014885;28;19929;-74
2022/09/16 15:43:53;;;;;;;;;;;23.00;82.50;;;;;;5014451;28;19925;-74
2022/09/16 15:46:21;;;;;;;;;;;23.00;82.50;;;;;;5014937;28;19925;-77
2022/09/16 15:48:48;;;;;;;;;;;23.00;82.30;;;;;;5014909;28;19925;-77
2022/09/16 15:51:23;;;;;;;;;;;23.00;82.30;;;;;;5015041;28;19936;-77
2022/09/16 15:53:50;;;;;;;;;;;23.00;82.30;;;;;;5016875;28;19925;-78
2022/09/16 15:56:21;;;;;;;;;;;23.00;82.20;;;;;;5017125;28;19980;-78
2022/09/16 15:58:49;;;;;;;;;;;22.90;82.00;;;;;;5017524;28;19980;-78
2022/09/16 16:01:19;;;;;;;;;;;23.00;82.10;;;;;;5018320;28;20019;-78
2022/09/16 16:03:55;;;;;;;;;;;23.00;82.10;;;;;;5019227;28;19933;-78
2022/09/16 16:06:37;;;;;;;;;;;23.00;82.00;;;;;;5017648;28;20024;-78
2022/09/16 16:09:04;;;;;;;;;;;22.90;81.90;;;;;;5018840;28;19925;-78
2022/09/16 16:11:30;;;;;;;;;;;23.00;82.00;;;;;;5017667;28;19964;-78
2022/09/16 16:13:57;;;;;;;;;;;23.00;82.00;;;;;;5017709;28;19965;-78
2022/09/16 16:16:25;;;;;;;;;;;23.00;81.90;;;;;;5018599;28;19972;-79
2022/09/16 16:18:52;;;;;;;;;;;23.00;81.90;;;;;;5017231;28;20012;-78
2022/09/16 16:21:20;;;;;;;;;;;22.90;81.80;;;;;;5014547;28;19980;-77
2022/09/16 16:23:46;;;;;;;;;;;23.00;82.70;;;;;;5015764;28;19926;-79
2022/09/16 16:26:13;;;;;;;;;;;22.90;81.90;;;;;;5016139;28;19983;-78
2022/09/16 16:28:40;;;;;;;;;;;22.90;81.90;;;;;;5015393;28;19930;-78
2022/09/16 16:31:07;;;;;;;;;;;23.00;82.10;;;;;;5015029;28;19964;-78
2022/09/16 16:33:35;;;;;;;;;;;23.00;82.10;;;;;;5015818;28;19948;-79
2022/09/16 16:36:02;;;;;;;;;;;23.00;82.10;;;;;;5018039;28;20012;-79
2022/09/16 16:38:29;;;;;;;;;;;22.90;82.10;;;;;;5018297;28;19960;-79
2022/09/16 16:40:56;;;;;;;;;;;23.00;82.20;;;;;;5015013;28;19936;-78
2022/09/16 16:43:22;;;;;;;;;;;23.00;82.20;;;;;;5016980;28;20016;-78
2022/09/16 16:45:53;;;;;;;;;;;23.00;82.30;;;;;;5019122;28;19926;-78
2022/09/16 16:48:19;;;;;;;;;;;23.00;82.30;;;;;;5019356;28;19952;-78
2022/09/16 16:50:55;;;;;;;;;;;23.00;82.30;;;;;;5019154;28;19932;-79
2022/09/16 16:53:22;;;;;;;;;;;23.00;82.30;;;;;;5018900;28;19933;-79
2022/09/16 16:55:49;;;;;;;;;;;23.00;82.30;;;;;;5018880;28;19980;-79
2022/09/16 16:58:15;;;;;;;;;;;23.00;82.40;;;;;;5022607;28;19956;-81
2022/09/16 17:00:42;;;;;;;;;;;23.00;82.40;;;;;;5023076;28;19926;-82
2022/09/16 17:03:09;;;;;;;;;;;23.00;82.50;;;;;;5022103;28;19979;-80
2022/09/16 17:05:35;;;;;;;;;;;23.00;82.50;;;;;;5022720;28;19980;-79
2022/09/16 17:08:03;;;;;;;;;;;23.00;82.60;;;;;;5023004;28;19965;-82
2022/09/16 17:10:30;;;;;;;;;;;23.00;82.70;;;;;;5021978;28;20126;-80
2022/09/16 17:12:57;;;;;;;;;;;23.00;82.70;;;;;;5021605;28;19926;-81
2022/09/16 17:15:24;;;;;;;;;;;23.00;82.70;;;;;;5022965;28;19972;-82
2022/09/16 17:17:51;;;;;;;;;;;23.00;82.70;;;;;;5022047;28;19926;-80
2022/09/16 17:20:18;;;;;;;;;;;23.00;82.70;;;;;;5021393;28;19933;-79
2022/09/16 17:22:44;;;;;;;;;;;23.00;82.70;;;;;;5020861;28;20024;-79
2022/09/16 17:25:12;;;;;;;;;;;23.00;82.80;;;;;;5019495;28;19960;-79
2022/09/16 17:27:39;;;;;;;;;;;23.00;82.70;;;;;;5018707;28;19932;-75
2022/09/16 17:30:07;;;;;;;;;;;23.00;82.80;;;;;;5018149;28;19965;-76
2022/09/16 17:32:33;;;;;;;;;;;23.00;82.80;;;;;;5020429;28;19929;-78
2022/09/16 17:35:00;;;;;;;;;;;23.00;82.80;;;;;;5021289;28;19934;-77
2022/09/16 17:37:27;;;;;;;;;;;23.00;82.90;;;;;;5020767;28;19925;-75
2022/09/16 17:39:54;;;;;;;;;;;23.00;83.20;;;;;;5020262;28;19973;-76
2022/09/16 17:42:22;;;;;;;;;;;23.00;83.30;;;;;;5020166;28;19979;-77
2022/09/16 17:44:49;;;;;;;;;;;23.00;83.40;;;;;;5023470;28;19932;-76
2022/09/16 17:47:16;;;;;;;;;;;23.00;83.60;;;;;;5024694;28;19933;-76
2022/09/16 17:49:43;;;;;;;;;;;23.00;83.70;;;;;;5024398;28;19925;-76
2022/09/16 17:52:10;;;;;;;;;;;23.00;83.80;;;;;;5024946;28;19971;-76
2022/09/16 17:54:37;;;;;;;;;;;23.00;84.00;;;;;;5022964;28;19925;-76
2022/09/16 17:57:04;;;;;;;;;;;23.00;84.10;;;;;;5024297;28;19933;-75
2022/09/16 17:59:32;;;;;;;;;;;23.10;84.40;;;;;;5023659;28;19925;-76
2022/09/16 18:01:59;;;;;;;;;;;23.10;84.60;;;;;;5019950;28;20377;-75
2022/09/16 18:04:26;;;;;;;;;;;23.10;84.70;;;;;;5019001;28;19995;-75
2022/09/16 18:06:52;;;;;;;;;;;23.10;84.90;;;;;;5019253;28;19925;-74
2022/09/16 18:09:19;;;;;;;;;;;23.10;85.10;;;;;;5019355;28;19968;-76
2022/09/16 18:11:46;;;;;;;;;;;23.10;85.30;;;;;;5019339;28;19964;-75
2022/09/16 18:14:14;;;;;;;;;;;23.10;85.50;;;;;;5017694;28;20084;-75
2022/09/16 18:16:42;;;;;;;;;;;23.10;85.60;;;;;;5016135;28;20373;-75
2022/09/16 18:19:09;;;;;;;;;;;23.10;85.80;;;;;;5016393;28;19926;-75
2022/09/16 18:21:37;;;;;;;;;;;23.10;86.00;;;;;;5017186;28;19935;-75
2022/09/16 18:24:04;;;;;;;;;;;23.10;86.10;;;;;;5016848;28;20044;-76
2022/09/16 18:26:31;;;;;;;;;;;23.10;86.30;;;;;;5016414;28;19932;-77
2022/09/16 18:29:00;;;;;;;;;;;23.10;86.40;;;;;;5016287;28;19926;-77
2022/09/16 18:31:27;;;;;;;;;;;23.10;86.50;;;;;;5018070;28;20008;-75
2022/09/16 18:33:55;;;;;;;;;;;23.10;86.60;;;;;;5018904;28;20016;-75
2022/09/16 18:36:24;;;;;;;;;;;23.10;86.70;;;;;;5018532;28;19931;-78
2022/09/16 18:38:51;;;;;;;;;;;23.10;86.90;;;;;;5017913;28;20008;-78
2022/09/16 18:41:19;;;;;;;;;;;23.10;86.90;;;;;;5020256;28;19926;-79
2022/09/16 18:43:47;;;;;;;;;;;23.10;87.00;;;;;;5019870;28;19925;-77